Time;durP1;ratioP1;P1;durP2;ratioP2;P2;SDS_P1;SDS_P2;PMS_P1;PMS_P2;Temp;Humidity;BMP_temperature;BMP_pressure;BME280_temperature;BME280_humidity;BME280_pressure;Samples;Min_cycle;Max_cycle;Signal;HPM_P1;HPM_P2
2021/07/12 00:01:56;;;;;;;3.75;3.45;;;20.00;99.90;;;;;;4942439;29;20711;-79
2021/07/12 00:04:22;;;;;;;3.95;3.55;;;20.00;99.90;;;;;;4942852;29;20191;-79
2021/07/12 00:06:48;;;;;;;6.85;4.10;;;20.00;99.90;;;;;;4943211;29;20175;-80
2021/07/12 00:09:13;;;;;;;6.03;3.47;;;20.00;99.90;;;;;;4942144;29;20696;-80
2021/07/12 00:11:39;;;;;;;4.60;3.20;;;20.10;99.90;;;;;;4941220;29;20234;-80
2021/07/12 00:14:04;;;;;;;3.78;2.70;;;20.10;99.90;;;;;;4940071;29;20191;-80
2021/07/12 00:16:30;;;;;;;3.47;2.97;;;20.10;99.90;;;;;;4940948;29;20179;-79
2021/07/12 00:18:56;;;;;;;4.57;3.00;;;20.10;99.90;;;;;;4938496;29;20636;-80
2021/07/12 00:21:21;;;;;;;3.28;2.97;;;20.10;99.90;;;;;;4937675;29;20168;-79
2021/07/12 00:23:49;;;;;;;3.60;2.72;;;20.10;99.90;;;;;;4937250;29;20699;-79
2021/07/12 00:26:15;;;;;;;3.75;3.10;;;20.30;99.90;;;;;;4937513;29;20163;-79
2021/07/12 00:28:41;;;;;;;3.20;2.88;;;20.30;99.90;;;;;;4937794;29;20181;-80
2021/07/12 00:31:07;;;;;;;5.57;3.63;;;20.10;99.90;;;;;;4937339;29;20606;-80
2021/07/12 00:33:33;;;;;;;2.78;2.50;;;20.00;99.90;;;;;;4937343;29;20211;-80
2021/07/12 00:35:59;;;;;;;4.63;3.17;;;20.00;99.90;;;;;;4937413;29;20628;-80
2021/07/12 00:38:25;;;;;;;2.67;2.47;;;20.00;99.90;;;;;;4937190;29;20180;-80
2021/07/12 00:40:51;;;;;;;3.67;3.17;;;20.10;99.90;;;;;;4937213;29;20168;-80
2021/07/12 00:43:16;;;;;;;3.15;2.63;;;20.20;99.90;;;;;;4937333;29;20191;-79
2021/07/12 00:45:42;;;;;;;2.95;2.63;;;20.10;99.90;;;;;;4937207;29;20262;-80
2021/07/12 00:48:08;;;;;;;5.43;3.25;;;20.10;99.90;;;;;;4936970;29;20175;-79
2021/07/12 00:50:38;;;;;;;3.03;2.72;;;20.10;99.90;;;;;;4937094;29;20186;-79
2021/07/12 00:53:05;;;;;;;2.55;2.35;;;20.20;99.90;;;;;;4936571;29;20211;-79
2021/07/12 00:55:39;;;;;;;5.25;2.72;;;20.20;99.90;;;;;;4936561;29;20552;-80
2021/07/12 00:58:07;;;;;;;3.63;2.50;;;20.20;99.90;;;;;;4937182;29;20254;-80
2021/07/12 01:00:33;;;;;;;6.57;3.10;;;20.10;99.90;;;;;;4936705;29;20577;-80
2021/07/12 01:02:59;;;;;;;3.58;3.28;;;20.00;99.90;;;;;;4936790;29;20163;-79
2021/07/12 01:05:29;;;;;;;2.63;2.35;;;20.10;99.90;;;;;;4937163;29;20269;-80
2021/07/12 01:07:55;;;;;;;3.70;3.08;;;20.10;99.90;;;;;;4936653;29;20203;-79
2021/07/12 01:10:22;;;;;;;3.22;2.95;;;20.00;99.90;;;;;;4936736;29;20206;-80
2021/07/12 01:12:55;;;;;;;2.80;2.60;;;19.90;99.90;;;;;;4936240;29;20572;-79
2021/07/12 01:15:23;;;;;;;2.90;2.70;;;19.80;99.90;;;;;;4935215;29;20215;-80
2021/07/12 01:18:20;;;;;;;2.88;2.67;;;19.70;99.90;;;;;;4936353;29;20171;-79
2021/07/12 01:21:24;;;;;;;2.47;2.28;;;19.70;99.90;;;;;;4936453;29;20222;-79
2021/07/12 01:23:52;;;;;;;2.85;2.65;;;19.70;99.90;;;;;;4936075;29;20187;-79
2021/07/12 01:26:33;;;;;;;11.52;3.35;;;19.70;99.90;;;;;;4936293;29;20171;-80
2021/07/12 01:29:11;;;;;;;3.17;2.78;;;19.40;99.90;;;;;;4934915;29;20175;-79
2021/07/12 01:32:10;;;;;;;4.53;3.05;;;19.30;99.90;;;;;;4934870;29;20242;-79
2021/07/12 01:34:35;;;;;;;2.85;2.65;;;19.50;99.90;;;;;;4936103;29;20207;-79
2021/07/12 01:37:08;;;;;;;9.40;3.00;;;19.50;99.90;;;;;;4935960;29;20170;-79
2021/07/12 01:39:44;;;;;;;8.23;2.95;;;19.50;99.90;;;;;;4936191;29;20159;-79
2021/07/12 01:42:26;;;;;;;4.68;2.85;;;19.40;99.90;;;;;;4936706;29;20241;-80
2021/07/12 01:44:58;;;;;;;3.10;2.90;;;19.40;99.90;;;;;;4952422;29;20193;-79
2021/07/12 01:48:17;;;;;;;3.13;2.75;;;19.40;99.90;;;;;;4945657;29;20183;-79
2021/07/12 01:50:56;;;;;;;5.35;3.22;;;19.40;99.90;;;;;;4920530;29;20183;-79
2021/07/12 01:53:35;;;;;;;5.28;3.60;;;19.20;99.90;;;;;;4936397;29;20183;-79
2021/07/12 01:56:25;;;;;;;3.40;2.83;;;19.20;99.90;;;;;;4936479;29;20182;-79
2021/07/12 01:59:02;;;;;;;5.75;3.13;;;19.30;99.90;;;;;;4937931;29;20177;-79
2021/07/12 02:01:30;;;;;;;3.67;3.17;;;19.50;99.90;;;;;;4936762;29;20174;-79
2021/07/12 02:03:59;;;;;;;3.47;3.17;;;19.30;99.90;;;;;;4935680;29;20184;-79
2021/07/12 02:06:25;;;;;;;3.75;3.30;;;19.20;99.90;;;;;;4935657;29;20170;-80
2021/07/12 02:08:52;;;;;;;3.72;3.35;;;19.20;99.90;;;;;;4935749;29;20194;-79
2021/07/12 02:11:19;;;;;;;3.25;2.95;;;19.10;99.90;;;;;;4935419;29;20199;-79
2021/07/12 02:13:47;;;;;;;4.95;3.20;;;19.00;99.90;;;;;;4935915;29;20559;-79
2021/07/12 02:16:14;;;;;;;5.45;3.17;;;19.10;99.90;;;;;;4935556;29;20191;-79
2021/07/12 02:18:43;;;;;;;3.28;2.97;;;19.10;99.90;;;;;;4935183;29;20171;-79
2021/07/12 02:21:10;;;;;;;3.70;3.40;;;19.10;99.90;;;;;;4934894;29;20250;-79
2021/07/12 02:23:38;;;;;;;3.75;3.45;;;19.10;99.90;;;;;;4936311;29;20198;-79
2021/07/12 02:26:04;;;;;;;4.13;3.72;;;19.10;99.90;;;;;;4934577;29;20172;-78
2021/07/12 02:28:31;;;;;;;4.20;3.33;;;19.20;99.90;;;;;;4934466;29;20222;-79
2021/07/12 02:30:58;;;;;;;4.07;3.78;;;19.40;99.90;;;;;;4935317;29;20167;-79
2021/07/12 02:33:24;;;;;;;3.35;3.05;;;19.50;99.90;;;;;;4935561;29;20194;-80
2021/07/12 02:35:53;;;;;;;3.47;3.28;;;19.50;99.90;;;;;;4935795;29;20167;-79
2021/07/12 02:38:19;;;;;;;4.05;2.95;;;19.40;99.90;;;;;;4934122;29;20532;-80
2021/07/12 02:40:46;;;;;;;3.45;3.25;;;19.30;99.90;;;;;;4934111;29;20569;-79
2021/07/12 02:43:13;;;;;;;4.47;3.88;;;19.30;99.90;;;;;;4935050;29;21063;-80
2021/07/12 02:45:39;;;;;;;3.72;3.20;;;19.10;99.90;;;;;;4934613;29;20183;-80
2021/07/12 02:48:06;;;;;;;2.90;2.70;;;19.10;99.90;;;;;;4934954;29;20171;-79
2021/07/12 02:50:32;;;;;;;3.53;2.90;;;19.20;99.90;;;;;;4935275;29;20273;-79
2021/07/12 02:53:05;;;;;;;6.45;2.92;;;19.40;99.90;;;;;;4934819;29;20218;-80
2021/07/12 02:55:31;;;;;;;4.38;3.13;;;19.50;99.90;;;;;;4934891;29;20202;-80
2021/07/12 02:57:56;;;;;;;4.35;3.45;;;19.40;99.90;;;;;;4933886;29;20180;-80
2021/07/12 03:00:22;;;;;;;7.60;3.33;;;19.30;99.90;;;;;;4934651;29;20246;-79
2021/07/12 03:02:48;;;;;;;3.03;2.72;;;19.40;99.90;;;;;;4934950;29;20182;-79
2021/07/12 03:05:13;;;;;;;3.42;3.13;;;19.20;99.90;;;;;;4934902;29;20188;-78
2021/07/12 03:07:50;;;;;;;3.60;3.13;;;19.20;99.90;;;;;;4935194;29;20230;-80
2021/07/12 03:10:22;;;;;;;4.35;3.03;;;19.20;99.90;;;;;;4935060;29;20171;-79
2021/07/12 03:12:58;;;;;;;5.47;3.22;;;19.10;99.90;;;;;;4934550;29;20203;-80
2021/07/12 03:15:38;;;;;;;4.13;3.40;;;19.20;99.90;;;;;;4934658;29;20191;-80
2021/07/12 03:18:09;;;;;;;4.82;3.30;;;19.10;99.90;;;;;;4934999;29;20171;-79
2021/07/12 03:20:37;;;;;;;3.50;2.95;;;19.00;99.90;;;;;;4934606;29;20183;-78
2021/07/12 03:23:04;;;;;;;4.68;4.22;;;19.20;99.90;;;;;;4934651;29;20172;-79
2021/07/12 03:25:35;;;;;;;4.30;3.90;;;19.20;99.90;;;;;;4934638;29;20191;-79
2021/07/12 03:28:02;;;;;;;3.47;3.17;;;19.30;99.90;;;;;;4934868;29;20535;-79
2021/07/12 03:30:30;;;;;;;3.35;3.15;;;19.50;99.90;;;;;;4936119;29;20179;-79
2021/07/12 03:32:57;;;;;;;3.55;3.17;;;19.30;99.90;;;;;;4936596;29;20626;-79
2021/07/12 03:35:26;;;;;;;3.75;3.45;;;19.10;99.90;;;;;;4938184;29;20227;-79
2021/07/12 03:37:53;;;;;;;3.28;2.97;;;19.10;99.90;;;;;;4937728;29;20182;-79
2021/07/12 03:40:19;;;;;;;3.25;2.88;;;19.00;99.90;;;;;;4936872;29;20167;-78
2021/07/12 03:42:45;;;;;;;3.42;3.10;;;19.00;99.90;;;;;;4938152;29;20175;-80
2021/07/12 03:45:13;;;;;;;3.45;3.15;;;19.00;99.90;;;;;;4937873;29;20258;-79
2021/07/12 03:47:39;;;;;;;3.58;2.88;;;18.80;99.90;;;;;;4937930;29;20167;-79
2021/07/12 03:50:11;;;;;;;3.33;3.13;;;18.90;99.90;;;;;;4938100;29;20186;-80
2021/07/12 03:52:44;;;;;;;5.70;4.13;;;18.90;99.90;;;;;;4937821;29;20241;-78
2021/07/12 03:55:12;;;;;;;5.05;3.78;;;18.60;99.90;;;;;;4937694;29;20209;-79
2021/07/12 03:57:39;;;;;;;5.70;3.25;;;18.60;99.90;;;;;;4938125;29;20183;-79
2021/07/12 04:00:06;;;;;;;6.90;3.85;;;18.50;99.90;;;;;;4937455;29;20175;-80
2021/07/12 04:02:32;;;;;;;4.40;3.90;;;18.60;99.90;;;;;;4938103;29;20179;-79
2021/07/12 04:04:58;;;;;;;3.58;3.28;;;18.40;99.90;;;;;;4937602;29;20187;-80
2021/07/12 04:07:23;;;;;;;5.53;3.22;;;18.40;99.90;;;;;;4936316;29;20656;-80
2021/07/12 04:09:49;;;;;;;4.43;3.05;;;18.40;99.90;;;;;;4936500;29;20278;-79
2021/07/12 04:12:22;;;;;;;3.10;2.90;;;18.50;99.90;;;;;;4937495;29;20234;-79
2021/07/12 04:14:49;;;;;;;11.25;3.55;;;18.40;99.90;;;;;;4936474;29;20560;-78
2021/07/12 04:17:15;;;;;;;6.00;4.15;;;18.60;99.90;;;;;;4937620;29;20183;-80
2021/07/12 04:19:40;;;;;;;5.18;4.68;;;18.70;99.90;;;;;;4935768;29;20980;-79
2021/07/12 04:22:06;;;;;;;6.32;4.15;;;18.80;99.90;;;;;;4937127;29;20182;-79
2021/07/12 04:24:32;;;;;;;4.75;3.80;;;18.80;99.90;;;;;;4937713;29;20206;-79
2021/07/12 04:26:57;;;;;;;5.05;4.07;;;18.70;99.90;;;;;;4938299;29;20175;-78
2021/07/12 04:29:23;;;;;;;3.03;2.55;;;18.70;99.90;;;;;;4939640;29;20163;-81
2021/07/12 04:31:49;;;;;;;7.45;3.75;;;18.70;99.90;;;;;;4954554;29;20235;-79
2021/07/12 04:34:15;;;;;;;4.20;3.80;;;18.80;99.90;;;;;;4949257;29;20189;-80
2021/07/12 04:36:41;;;;;;;4.57;3.80;;;18.90;99.90;;;;;;4945049;29;20175;-81
2021/07/12 04:39:07;;;;;;;3.70;3.40;;;19.00;99.90;;;;;;4938076;29;20178;-80
2021/07/12 04:41:32;;;;;;;7.78;3.50;;;18.80;99.90;;;;;;4937620;29;20168;-80
2021/07/12 04:43:58;;;;;;;4.70;3.95;;;18.80;99.90;;;;;;4937697;29;20687;-80
2021/07/12 04:46:24;;;;;;;5.15;3.42;;;19.00;99.90;;;;;;4939052;29;20167;-80
2021/07/12 04:48:50;;;;;;;4.20;3.90;;;19.00;99.90;;;;;;4938391;29;20168;-79
2021/07/12 04:51:16;;;;;;;4.55;3.78;;;19.20;99.90;;;;;;4943111;29;20282;-80
2021/07/12 04:53:42;;;;;;;8.60;3.92;;;19.40;99.90;;;;;;4938100;29;20231;-79
2021/07/12 04:56:08;;;;;;;4.30;3.90;;;19.30;99.90;;;;;;4936391;29;20266;-81
2021/07/12 04:58:41;;;;;;;6.60;4.18;;;19.30;99.90;;;;;;4937477;29;20171;-79
2021/07/12 05:01:06;;;;;;;4.80;3.90;;;19.30;99.90;;;;;;4935802;29;20207;-80
2021/07/12 05:03:32;;;;;;;3.65;3.35;;;19.60;99.90;;;;;;4937003;29;20242;-79
2021/07/12 05:05:58;;;;;;;7.05;3.50;;;19.70;99.90;;;;;;4936083;29;20171;-79
2021/07/12 05:08:24;;;;;;;6.88;3.38;;;19.90;99.90;;;;;;4935642;29;20167;-80
2021/07/12 05:10:50;;;;;;;6.90;3.80;;;20.10;99.90;;;;;;4937784;29;20222;-85
2021/07/12 05:13:15;;;;;;;7.95;4.45;;;20.00;99.90;;;;;;4936361;29;20320;-87
2021/07/12 05:15:42;;;;;;;4.63;3.47;;;20.20;99.90;;;;;;4936773;29;20282;-86
2021/07/12 05:18:07;;;;;;;6.82;3.60;;;20.40;99.90;;;;;;4936589;29;20222;-85
2021/07/12 05:20:34;;;;;;;5.43;3.58;;;20.60;99.90;;;;;;4938002;29;20172;-86
2021/07/12 05:23:00;;;;;;;4.85;2.95;;;20.30;99.90;;;;;;4936593;29;20183;-87
2021/07/12 05:25:28;;;;;;;14.32;3.35;;;20.40;99.90;;;;;;4937003;29;20191;-86
2021/07/12 05:27:54;;;;;;;3.50;3.20;;;20.70;99.90;;;;;;4936663;29;20179;-87
2021/07/12 05:30:20;;;;;;;4.85;3.25;;;20.90;99.90;;;;;;4936579;29;20538;-86
2021/07/12 05:32:46;;;;;;;4.97;3.50;;;20.90;99.90;;;;;;4936796;29;20302;-86
2021/07/12 05:35:13;;;;;;;3.15;2.72;;;21.20;99.90;;;;;;4936599;29;20377;-86
2021/07/12 05:37:39;;;;;;;7.03;3.00;;;21.30;99.90;;;;;;4936679;29;20298;-87
2021/07/12 05:40:06;;;;;;;7.85;3.00;;;21.40;99.90;;;;;;4936248;29;20197;-86
2021/07/12 05:42:32;;;;;;;5.97;4.25;;;21.10;99.90;;;;;;4935698;29;20179;-86
2021/07/12 05:44:57;;;;;;;4.22;3.10;;;21.20;99.90;;;;;;4917761;29;20202;-87
2021/07/12 05:47:23;;;;;;;11.60;3.63;;;21.20;99.90;;;;;;4933830;29;20621;-91
2021/07/12 05:49:49;;;;;;;4.40;2.97;;;21.30;99.90;;;;;;4902202;29;20185;-82
2021/07/12 05:52:14;;;;;;;8.43;3.65;;;21.30;99.90;;;;;;4930991;29;20212;-80
2021/07/12 05:54:40;;;;;;;8.77;3.42;;;21.20;99.90;;;;;;4916787;29;20216;-81
2021/07/12 05:57:06;;;;;;;4.50;3.20;;;21.20;99.90;;;;;;4917578;29;20194;-80
2021/07/12 05:59:32;;;;;;;8.23;3.15;;;21.20;99.90;;;;;;4917546;29;20258;-82
2021/07/12 06:01:58;;;;;;;6.82;3.05;;;21.20;99.90;;;;;;4917100;29;20331;-80
2021/07/12 06:04:23;;;;;;;4.50;2.10;;;21.30;99.90;;;;;;4917357;29;20204;-81
2021/07/12 06:06:49;;;;;;;4.20;2.45;;;21.10;99.90;;;;;;4930956;29;20233;-90
2021/07/12 06:09:15;;;;;;;5.07;2.30;;;21.20;99.90;;;;;;4952062;28;20226;-84
2021/07/12 06:11:41;;;;;;;11.15;2.45;;;21.50;99.90;;;;;;4936809;29;20203;-88
2021/07/12 06:14:07;;;;;;;4.07;2.30;;;21.90;99.90;;;;;;4936646;29;20206;-90
2021/07/12 06:16:32;;;;;;;6.70;1.65;;;22.20;99.90;;;;;;4936506;29;20175;-81
2021/07/12 06:18:58;;;;;;;5.38;2.25;;;22.50;99.90;;;;;;4934407;29;20202;-90
2021/07/12 06:21:25;;;;;;;2.63;1.80;;;22.90;99.90;;;;;;4936881;29;20182;-86
2021/07/12 06:23:50;;;;;;;14.27;2.28;;;22.90;99.90;;;;;;4952479;28;20198;-84
2021/07/12 06:26:16;;;;;;;33.70;4.97;;;23.10;99.90;;;;;;4936863;29;20179;-87
2021/07/12 06:28:41;;;;;;;9.88;2.75;;;23.20;99.90;;;;;;4936680;29;20210;-90
2021/07/12 06:31:07;;;;;;;4.18;2.08;;;23.30;99.90;;;;;;4935474;29;20183;-86
2021/07/12 06:33:33;;;;;;;12.70;2.47;;;23.50;99.90;;;;;;4935563;29;20199;-86
2021/07/12 06:35:59;;;;;;;5.63;1.83;;;23.70;99.90;;;;;;4951974;28;20185;-86
2021/07/12 06:38:25;;;;;;;1.67;1.58;;;23.90;99.90;;;;;;4937291;29;20242;-86
2021/07/12 06:40:52;;;;;;;10.48;1.95;;;23.90;99.90;;;;;;4935735;29;20258;-87
2021/07/12 06:43:17;;;;;;;2.67;1.65;;;23.90;99.90;;;;;;4935110;29;20625;-86
2021/07/12 06:45:44;;;;;;;2.03;1.48;;;23.90;99.90;;;;;;4943571;29;20176;-85
2021/07/12 06:48:10;;;;;;;8.32;2.13;;;24.10;99.90;;;;;;4944929;29;20171;-85
2021/07/12 06:50:36;;;;;;;5.32;1.67;;;24.50;99.90;;;;;;4915312;29;20578;-85
2021/07/12 06:53:02;;;;;;;2.20;1.52;;;24.70;99.90;;;;;;4916239;29;20913;-83
2021/07/12 06:55:28;;;;;;;1.63;1.48;;;24.80;99.90;;;;;;4928603;29;20289;-80
2021/07/12 06:57:54;;;;;;;7.95;1.60;;;24.70;99.90;;;;;;4934846;29;20191;-81
2021/07/12 07:00:20;;;;;;;5.53;1.35;;;24.50;99.90;;;;;;4934681;29;20644;-80
2021/07/12 07:02:45;;;;;;;4.55;1.30;;;24.50;99.90;;;;;;4934430;29;20179;-81
2021/07/12 07:05:11;;;;;;;1.23;1.10;;;24.80;99.90;;;;;;4936909;29;20606;-81
2021/07/12 07:07:37;;;;;;;3.47;1.35;;;24.90;99.90;;;;;;4938528;29;20513;-82
2021/07/12 07:10:05;;;;;;;2.20;1.25;;;25.30;99.90;;;;;;4937150;29;20171;-82
2021/07/12 07:12:30;;;;;;;1.63;1.40;;;25.50;99.90;;;;;;4938641;29;20214;-83
2021/07/12 07:14:56;;;;;;;1.20;1.10;;;25.60;99.90;;;;;;4939264;29;20215;-83
2021/07/12 07:17:22;;;;;;;4.18;0.90;;;25.60;99.90;;;;;;4949495;29;20178;-84
2021/07/12 07:19:48;;;;;;;1.85;1.17;;;26.00;99.90;;;;;;4953957;29;20178;-82
2021/07/12 07:22:13;;;;;;;5.53;1.20;;;26.20;99.90;;;;;;4944092;29;20643;-81
2021/07/12 07:24:39;;;;;;;1.30;1.10;;;26.50;99.90;;;;;;4938702;29;20199;-81
2021/07/12 07:27:05;;;;;;;8.38;1.05;;;26.50;99.90;;;;;;4937518;29;20238;-81
2021/07/12 07:29:31;;;;;;;1.38;1.08;;;26.50;99.90;;;;;;4938820;29;20238;-83
2021/07/12 07:31:56;;;;;;;2.25;1.13;;;26.90;99.90;;;;;;4938915;29;20739;-82
2021/07/12 07:34:22;;;;;;;4.78;1.08;;;26.90;99.90;;;;;;4938991;29;20207;-82
2021/07/12 07:36:48;;;;;;;2.97;1.10;;;26.80;99.90;;;;;;4937558;29;20175;-85
2021/07/12 07:39:13;;;;;;;6.20;1.00;;;26.70;99.90;;;;;;4937811;29;20266;-83
2021/07/12 07:41:40;;;;;;;7.90;1.30;;;26.70;99.90;;;;;;4937350;29;20177;-84
2021/07/12 07:44:06;;;;;;;2.38;1.38;;;26.60;99.90;;;;;;4937926;29;20266;-83
2021/07/12 07:46:33;;;;;;;1.20;1.10;;;26.60;99.90;;;;;;4938812;29;20254;-83
2021/07/12 07:49:00;;;;;;;1.27;1.00;;;27.00;99.90;;;;;;4940415;29;20230;-83
2021/07/12 07:51:26;;;;;;;1.77;1.15;;;27.50;99.90;;;;;;4943929;29;20163;-88
2021/07/12 07:53:52;;;;;;;2.75;1.15;;;27.20;99.90;;;;;;4942265;29;20204;-82
2021/07/12 07:56:17;;;;;;;2.05;1.27;;;26.80;99.90;;;;;;4945492;29;20210;-83
2021/07/12 07:58:45;;;;;;;2.42;1.20;;;26.80;99.90;;;;;;4945548;29;20171;-84
2021/07/12 08:01:11;;;;;;;4.63;1.65;;;26.80;99.90;;;;;;4942891;29;20258;-83
2021/07/12 08:03:39;;;;;;;3.72;1.20;;;26.80;99.90;;;;;;4941453;29;20218;-84
2021/07/12 08:06:05;;;;;;;5.05;1.10;;;26.80;99.90;;;;;;4942681;29;20198;-83
2021/07/12 08:08:30;;;;;;;1.40;1.10;;;26.60;99.90;;;;;;4942576;29;20179;-85
2021/07/12 08:10:56;;;;;;;1.08;0.98;;;26.40;99.90;;;;;;4938465;29;20171;-82
2021/07/12 08:13:22;;;;;;;2.58;1.33;;;26.10;99.90;;;;;;4936633;29;20215;-84
2021/07/12 08:15:47;;;;;;;1.27;1.17;;;26.20;99.90;;;;;;4936058;29;20262;-84
2021/07/12 08:18:14;;;;;;;3.85;1.33;;;26.60;99.90;;;;;;4937051;29;20238;-84
2021/07/12 08:20:40;;;;;;;1.13;1.02;;;27.00;99.90;;;;;;4936835;29;20210;-84
2021/07/12 08:23:06;;;;;;;1.27;0.98;;;27.10;99.90;;;;;;4936582;29;20207;-82
2021/07/12 08:25:32;;;;;;;4.53;2.47;;;27.30;99.90;;;;;;4937678;29;20187;-83
2021/07/12 08:27:58;;;;;;;8.10;1.70;;;27.10;99.90;;;;;;4937553;29;20175;-86
2021/07/12 08:30:24;;;;;;;3.42;1.40;;;26.90;99.90;;;;;;4936059;29;20175;-84
2021/07/12 08:32:50;;;;;;;2.30;1.40;;;27.20;99.90;;;;;;4937286;29;20569;-85
2021/07/12 08:35:19;;;;;;;1.55;1.10;;;27.50;99.90;;;;;;4936215;29;20187;-84
2021/07/12 08:37:50;;;;;;;1.60;1.25;;;27.00;99.90;;;;;;4937918;29;20182;-84
2021/07/12 08:40:21;;;;;;;1.60;1.50;;;27.00;99.90;;;;;;4937215;29;20523;-87
2021/07/12 08:42:50;;;;;;;1.80;1.05;;;27.30;99.90;;;;;;4937181;29;20167;-86
2021/07/12 08:45:16;;;;;;;1.70;1.13;;;27.50;99.90;;;;;;4937892;29;20195;-86
2021/07/12 08:47:42;;;;;;;0.95;0.93;;;27.10;99.90;;;;;;4937922;29;20175;-87
2021/07/12 08:50:08;;;;;;;1.20;1.10;;;27.10;99.90;;;;;;4937530;29;20175;-84
2021/07/12 08:52:33;;;;;;;1.63;0.90;;;27.40;99.90;;;;;;4938694;29;20214;-89
2021/07/12 08:54:59;;;;;;;1.70;1.00;;;27.60;99.90;;;;;;4939022;29;20167;-86
2021/07/12 08:57:26;;;;;;;2.20;0.90;;;27.90;99.90;;;;;;4938630;29;20167;-87
2021/07/12 08:59:55;;;;;;;1.30;1.20;;;27.70;99.90;;;;;;4938660;29;20168;-87
2021/07/12 09:02:22;;;;;;;1.80;1.20;;;27.40;99.90;;;;;;4937951;29;20258;-85
2021/07/12 09:05:00;;;;;;;3.30;1.45;;;27.30;99.90;;;;;;4936864;29;20195;-86
2021/07/12 09:07:28;;;;;;;2.97;1.10;;;27.00;99.90;;;;;;4936697;29;20171;-85
2021/07/12 09:10:04;;;;;;;1.15;1.05;;;26.90;99.90;;;;;;4936474;29;20179;-85
2021/07/12 09:12:49;;;;;;;5.00;1.02;;;27.00;99.90;;;;;;4936226;29;20271;-83
2021/07/12 09:15:17;;;;;;;5.57;1.80;;;27.40;99.90;;;;;;4937104;29;20231;-84
2021/07/12 09:17:51;;;;;;;1.10;1.00;;;27.00;99.90;;;;;;4936295;29;20171;-85
2021/07/12 09:20:32;;;;;;;1.13;1.02;;;26.90;99.90;;;;;;4936270;29;20175;-85
2021/07/12 09:22:58;;;;;;;1.52;1.20;;;26.80;99.90;;;;;;4936432;29;20171;-85
2021/07/12 09:25:30;;;;;;;4.07;1.02;;;26.80;99.90;;;;;;4933281;29;20203;-85
2021/07/12 09:27:56;;;;;;;2.90;1.25;;;26.50;99.90;;;;;;4935973;29;20171;-85
2021/07/12 09:30:22;;;;;;;1.60;1.00;;;26.60;99.90;;;;;;4937275;29;20229;-85
2021/07/12 09:32:53;;;;;;;1.55;1.05;;;26.80;99.90;;;;;;4937175;29;20333;-85
2021/07/12 09:35:20;;;;;;;2.15;1.17;;;26.70;99.90;;;;;;4936950;29;20190;-84
2021/07/12 09:37:57;;;;;;;1.80;1.27;;;26.90;99.90;;;;;;4935687;29;20237;-86
2021/07/12 09:40:49;;;;;;;2.75;1.00;;;26.80;99.90;;;;;;4924344;29;20178;-86
2021/07/12 09:43:31;;;;;;;2.78;0.95;;;26.70;99.90;;;;;;4933259;29;20187;-86
2021/07/12 09:45:57;;;;;;;3.38;1.48;;;26.30;99.90;;;;;;4934856;29;20179;-83
2021/07/12 09:48:23;;;;;;;9.95;1.10;;;26.50;99.90;;;;;;4936431;29;20179;-86
2021/07/12 09:50:49;;;;;;;3.53;1.33;;;26.70;99.90;;;;;;4935053;29;20186;-85
2021/07/12 09:53:27;;;;;;;1.60;1.02;;;26.80;99.90;;;;;;4933876;29;20249;-88
2021/07/12 09:55:53;;;;;;;1.73;1.30;;;26.70;99.90;;;;;;4949242;28;20628;-86
2021/07/12 09:58:25;;;;;;;4.10;1.58;;;26.70;99.90;;;;;;4940093;29;20185;-85
2021/07/12 10:00:53;;;;;;;9.23;1.60;;;26.60;99.90;;;;;;4958055;28;20543;-84
2021/07/12 10:03:22;;;;;;;2.75;1.40;;;26.50;99.90;;;;;;4948055;29;20187;-88
2021/07/12 10:05:48;;;;;;;3.05;1.40;;;26.50;99.90;;;;;;4946701;29;20167;-85
2021/07/12 10:08:15;;;;;;;1.25;1.02;;;26.70;99.90;;;;;;4946166;29;20617;-85
2021/07/12 10:10:41;;;;;;;3.92;1.48;;;26.80;99.90;;;;;;4932745;29;20245;-83
2021/07/12 10:13:07;;;;;;;2.92;1.27;;;26.90;99.90;;;;;;4933541;29;20691;-85
2021/07/12 10:15:34;;;;;;;3.03;1.48;;;26.60;99.90;;;;;;4935186;29;20202;-87
2021/07/12 10:18:01;;;;;;;1.80;1.23;;;26.70;99.90;;;;;;4936508;29;20190;-89
2021/07/12 10:20:27;;;;;;;6.53;1.40;;;26.90;99.90;;;;;;4934019;29;20175;-87
2021/07/12 10:22:57;;;;;;;6.15;2.55;;;26.80;99.90;;;;;;4936030;29;20175;-86
2021/07/12 10:25:27;;;;;;;1.60;1.50;;;27.10;99.90;;;;;;4954735;28;20696;-84
2021/07/12 10:27:59;;;;;;;5.63;1.30;;;27.00;99.90;;;;;;4934935;29;20175;-83
2021/07/12 10:30:45;;;;;;;2.45;1.95;;;27.30;99.90;;;;;;4926736;29;20168;-82
2021/07/12 10:33:13;;;;;;;1.50;1.30;;;27.30;99.90;;;;;;4921399;28;20227;-85
2021/07/12 10:35:52;;;;;;;1.73;1.00;;;27.70;99.90;;;;;;4933584;29;20211;-84
2021/07/12 10:38:26;;;;;;;3.40;0.90;;;27.60;99.90;;;;;;4936679;29;20183;-87
2021/07/12 10:40:58;;;;;;;3.50;1.20;;;27.60;99.90;;;;;;4936777;29;20255;-84
2021/07/12 10:43:53;;;;;;;4.32;1.40;;;27.40;99.90;;;;;;4969283;23;20222;-83
2021/07/12 10:46:47;;;;;;;1.30;1.02;;;27.00;99.90;;;;;;4955780;28;20186;-91
2021/07/12 10:49:35;;;;;;;10.45;1.52;;;27.10;99.90;;;;;;4946218;28;20218;-86
2021/07/12 10:52:00;;;;;;;5.50;1.20;;;27.10;99.90;;;;;;4954752;28;20247;-82
2021/07/12 10:54:27;;;;;;;32.90;2.80;;;27.30;99.90;;;;;;4956898;28;20205;-87
2021/07/12 10:56:57;;;;;;;313.48;37.60;;;27.10;99.90;;;;;;4943676;29;20163;-88
2021/07/12 10:59:23;;;;;;;42.42;4.28;;;26.80;99.90;;;;;;4956873;28;20186;-89
2021/07/12 11:01:49;;;;;;;64.47;5.07;;;27.00;99.90;;;;;;4956583;28;20175;-86
2021/07/12 11:05:00;;;;;;;10.63;1.63;;;27.30;99.90;;;;;;4955031;28;20195;-83
2021/07/12 11:07:46;;;;;;;2.17;1.50;;;26.90;99.90;;;;;;4959932;28;20222;-82
2021/07/12 11:10:42;;;;;;;3.95;1.25;;;26.70;99.90;;;;;;4944238;29;20218;-83
2021/07/12 11:13:11;;;;;;;1.70;1.50;;;27.20;99.90;;;;;;4943375;29;20215;-83
2021/07/12 11:15:39;;;;;;;1.55;1.45;;;27.00;99.90;;;;;;4958992;28;20242;-89
2021/07/12 11:18:28;;;;;;;0.80;0.80;;;26.70;99.90;;;;;;4959174;28;20183;-94
2021/07/12 11:21:08;;;;;;;8.10;2.00;;;26.20;99.90;;;;;;4962407;28;20203;-84
2021/07/12 11:23:49;;;;;;;6.30;1.50;;;26.30;99.90;;;;;;4961652;28;20309;-84
2021/07/12 11:26:20;;;;;;;2.20;1.20;;;26.40;99.90;;;;;;4965908;28;20185;-84
2021/07/12 11:28:49;;;;;;;4.75;1.40;;;26.20;99.90;;;;;;4962866;28;20187;-89
2021/07/12 11:31:45;;;;;;;4.95;1.40;;;26.00;99.90;;;;;;4981416;28;20186;-83
2021/07/12 11:34:21;;;;;;;1.50;1.17;;;26.30;99.90;;;;;;4923588;29;20215;-86
2021/07/12 11:37:03;;;;;;;2.28;1.48;;;26.30;99.90;;;;;;4954752;28;20242;-83
2021/07/12 11:39:32;;;;;;;5.50;1.48;;;26.30;99.90;;;;;;4944071;28;20184;-84
2021/07/12 11:42:10;;;;;;;2.17;1.30;;;26.10;99.90;;;;;;4946108;28;20182;-84
2021/07/12 11:44:36;;;;;;;1.10;1.00;;;25.70;99.90;;;;;;4977695;28;20210;-83
2021/07/12 11:47:17;;;;;;;1.55;1.30;;;25.60;99.90;;;;;;4976105;28;20303;-87
2021/07/12 11:49:54;;;;;;;4.55;1.20;;;25.50;99.90;;;;;;4958626;28;20174;-83
2021/07/12 11:52:20;;;;;;;6.15;1.60;;;25.60;99.90;;;;;;4965379;28;20216;-83
2021/07/12 11:54:47;;;;;;;5.95;1.10;;;25.90;99.90;;;;;;4979936;28;20194;-82
2021/07/12 11:57:15;;;;;;;1.40;1.10;;;25.90;99.90;;;;;;4964526;29;20178;-84
2021/07/12 11:59:46;;;;;;;4.40;1.23;;;26.10;99.90;;;;;;4947763;29;20207;-90
2021/07/12 12:02:14;;;;;;;1.45;1.35;;;26.30;99.90;;;;;;4940640;29;20172;-91
2021/07/12 12:04:55;;;;;;;1.48;1.30;;;26.60;99.90;;;;;;4954785;28;20277;-94
2021/07/12 12:07:24;;;;;;;1.33;1.20;;;26.80;99.90;;;;;;4960331;29;20171;-93
2021/07/12 12:09:51;;;;;;;2.10;1.40;;;26.80;99.90;;;;;;4960655;29;20214;-92
2021/07/12 12:12:26;;;;;;;1.35;1.20;;;26.70;99.90;;;;;;4970048;28;20285;-93
2021/07/12 12:15:07;;;;;;;8.95;1.60;;;26.80;99.90;;;;;;4957215;29;20195;-92
2021/07/12 12:17:38;;;;;;;3.55;1.05;;;26.80;99.90;;;;;;4962825;29;20178;-92
2021/07/12 12:20:13;;;;;;;1.38;1.15;;;26.40;99.90;;;;;;4967183;29;20172;-91
2021/07/12 12:22:55;;;;;;;8.27;1.70;;;26.40;99.90;;;;;;4965347;28;20174;-92
2021/07/12 12:25:21;;;;;;;5.95;1.38;;;26.80;99.90;;;;;;4967541;28;20210;-89
2021/07/12 12:27:48;;;;;;;6.93;1.48;;;26.60;99.90;;;;;;4968456;28;20195;-90
2021/07/12 12:30:14;;;;;;;1.20;1.10;;;26.80;99.90;;;;;;4968907;29;20167;-92
2021/07/12 12:32:39;;;;;;;0.90;0.82;;;26.70;99.90;;;;;;4967182;28;20621;-93
2021/07/12 12:35:07;;;;;;;1.40;1.30;;;26.60;99.90;;;;;;4968961;28;20191;-91
2021/07/12 12:37:40;;;;;;;1.55;1.23;;;26.60;99.90;;;;;;4967750;28;20179;-91
2021/07/12 12:40:38;;;;;;;3.50;2.25;;;26.40;99.90;;;;;;4952202;28;20217;-92
2021/07/12 12:43:13;;;;;;;4.40;1.33;;;25.90;99.90;;;;;;4913589;29;20860;-89
2021/07/12 12:45:45;;;;;;;1.70;1.60;;;26.10;99.90;;;;;;4934760;29;20246;-89
2021/07/12 12:48:11;;;;;;;9.88;1.20;;;26.00;99.90;;;;;;4951954;29;20559;-89
2021/07/12 12:50:39;;;;;;;1.58;1.40;;;25.70;99.90;;;;;;4938803;29;20636;-87
2021/07/12 12:53:07;;;;;;;1.95;1.23;;;25.60;99.90;;;;;;4939598;29;20206;-87
2021/07/12 12:55:33;;;;;;;3.10;1.20;;;24.90;99.90;;;;;;4937774;29;20234;-94
2021/07/12 12:58:19;;;;;;;1.73;1.00;;;24.50;99.90;;;;;;4938875;29;20184;-82